< < Back
Terminal Aerodrome Forecast


Current Version              Previous Versions:   1  2  3  4  5  6  7  8  9  

Terminal Aerodrome Forecast

334
FTAK31 PAJN 061100
TAFAHN
TAF
PAHN 061120Z 0612/0712 00000KT P6SM SKC
     FM061800 12005KT P6SM SKC
     FM070400 VRB03KT P6SM SKC
      AMD LTD TO CLD VIS AND WIND=

Latest METAR

984
SAUS70 KWBC 061700
MTRAHN
METAR KAHN 061651Z 28004KT 10SM SCT021 28/21 A3017 RMK AO2 SLP209
T02830211


USA.gov is the U.S. government's official web portal to all federal, state and local government web resources and services.